Time;durP1;ratioP1;P1;durP2;ratioP2;P2;SDS_P1;SDS_P2;PMS_P1;PMS_P2;Temp;Humidity;BMP_temperature;BMP_pressure;BME280_temperature;BME280_humidity;BME280_pressure;Samples;Min_cycle;Max_cycle;Signal;HPM_P1;HPM_P2
2022/03/14 00:00:12;;;;;;;14.73;11.20;;;;;;;9.06;38.65;100167.81;5032523;28;20185;-66
2022/03/14 00:02:39;;;;;;;14.90;11.50;;;;;;;9.16;38.70;100179.28;5085467;28;20191;-66
2022/03/14 00:05:05;;;;;;;12.90;10.57;;;;;;;9.15;38.41;100180.22;5075837;28;20181;-64
2022/03/14 00:07:34;;;;;;;13.57;10.87;;;;;;;9.19;38.53;100189.44;5065486;28;20242;-63
2022/03/14 00:10:00;;;;;;;14.43;11.73;;;;;;;9.22;38.99;100187.63;5060761;28;20268;-63
2022/03/14 00:12:25;;;;;;;14.03;11.40;;;;;;;9.21;39.29;100202.19;5046393;28;20312;-62
2022/03/14 00:14:55;;;;;;;14.23;10.87;;;;;;;9.19;40.04;100211.69;5072704;28;20208;-65
2022/03/14 00:17:21;;;;;;;12.40;10.27;;;;;;;9.20;39.65;100223.63;5061129;28;20228;-64
2022/03/14 00:19:47;;;;;;;13.57;11.30;;;;;;;9.10;40.48;100241.16;5073063;28;20267;-62
2022/03/14 00:22:18;;;;;;;16.30;11.10;;;;;;;9.00;39.97;100243.31;5046101;28;20312;-62
2022/03/14 00:24:43;;;;;;;14.33;11.80;;;;;;;8.95;39.17;100241.88;5054104;28;20181;-61
2022/03/14 00:27:09;;;;;;;11.97;10.70;;;;;;;9.00;38.97;100243.31;5053840;28;20257;-61
2022/03/14 00:29:34;;;;;;;12.30;10.67;;;;;;;9.05;38.82;100248.25;5051676;28;20177;-65
2022/03/14 00:32:00;;;;;;;11.53;10.33;;;;;;;9.08;38.56;100240.44;5025402;28;20252;-64
2022/03/14 00:34:26;;;;;;;14.50;11.37;;;;;;;9.00;38.68;100253.59;5052638;28;20219;-62
2022/03/14 00:36:51;;;;;;;12.03;10.57;;;;;;;9.00;38.74;100252.78;5053863;28;20209;-62
2022/03/14 00:39:18;;;;;;;12.60;10.47;;;;;;;8.79;38.61;100250.25;5061036;28;20173;-64
2022/03/14 00:41:43;;;;;;;13.30;10.73;;;;;;;8.60;39.39;100242.56;5051612;28;20812;-62
2022/03/14 00:44:14;;;;;;;12.37;11.07;;;;;;;8.56;39.56;100234.16;5069286;28;20200;-62
2022/03/14 00:46:39;;;;;;;14.20;10.97;;;;;;;8.44;39.34;100229.53;5072569;28;20213;-62
2022/03/14 00:49:05;;;;;;;15.80;11.10;;;;;;;8.29;39.93;100222.53;5071853;28;20177;-61
2022/03/14 00:51:31;;;;;;;12.37;10.60;;;;;;;8.42;39.52;100228.78;5052652;28;20245;-62
2022/03/14 00:53:56;;;;;;;14.00;11.97;;;;;;;8.59;39.47;100240.06;5052216;28;20544;-63
2022/03/14 00:56:21;;;;;;;14.23;11.00;;;;;;;8.69;39.77;100244.69;5052044;28;20204;-63
2022/03/14 00:58:47;;;;;;;17.47;11.37;;;;;;;8.66;39.87;100247.41;5056708;28;20217;-62
2022/03/14 01:01:12;;;;;;;14.00;10.70;;;;;;;8.64;40.31;100250.94;5054075;28;20702;-63
2022/03/14 01:03:38;;;;;;;14.87;11.20;;;;;;;8.70;40.38;100254.06;5064207;28;20177;-62
2022/03/14 01:06:03;;;;;;;12.00;10.13;;;;;;;8.72;40.44;100261.72;5073663;28;20181;-63
2022/03/14 01:08:29;;;;;;;12.73;10.57;;;;;;;8.79;40.92;100267.38;5072905;28;20191;-62
2022/03/14 01:10:54;;;;;;;15.87;10.13;;;;;;;8.46;40.91;100270.50;5057376;28;20237;-62
2022/03/14 01:13:19;;;;;;;14.00;10.57;;;;;;;8.43;41.63;100275.75;5071977;28;20173;-60
2022/03/14 01:15:46;;;;;;;19.33;10.83;;;;;;;8.50;42.03;100302.84;5073017;28;20209;-63
2022/03/14 01:18:13;;;;;;;14.50;10.73;;;;;;;8.49;41.89;100325.06;5072522;28;20177;-61
2022/03/14 01:20:39;;;;;;;17.67;10.67;;;;;;;8.49;41.42;100332.75;5067425;28;20228;-61
2022/03/14 01:23:04;;;;;;;13.23;10.77;;;;;;;8.48;40.22;100330.25;5083570;28;20647;-62
2022/03/14 01:25:30;;;;;;;17.97;10.87;;;;;;;8.46;39.63;100345.72;5072862;28;20599;-63
2022/03/14 01:27:55;;;;;;;13.30;10.53;;;;;;;8.56;39.62;100339.28;5072065;28;20895;-63
2022/03/14 01:30:21;;;;;;;15.00;10.73;;;;;;;8.66;38.93;100346.63;5063471;28;20561;-62
2022/03/14 01:32:48;;;;;;;15.83;10.90;;;;;;;8.57;38.95;100358.09;5071461;28;20189;-62
2022/03/14 01:35:14;;;;;;;14.40;10.97;;;;;;;8.66;38.73;100364.56;5071273;28;20197;-62
2022/03/14 01:37:39;;;;;;;19.70;11.47;;;;;;;8.47;40.17;100367.91;5070638;28;20181;-64
2022/03/14 01:40:09;;;;;;;13.77;11.10;;;;;;;8.58;40.70;100367.44;5060925;28;20523;-62
2022/03/14 01:42:34;;;;;;;15.23;11.20;;;;;;;8.50;42.35;100377.19;5055806;28;20173;-63
2022/03/14 01:45:00;;;;;;;14.53;12.00;;;;;;;8.65;42.96;100380.84;5071161;28;20200;-63
2022/03/14 01:47:28;;;;;;;14.87;12.30;;;;;;;8.78;44.17;100386.28;5070471;28;20172;-62
2022/03/14 01:49:53;;;;;;;13.57;12.07;;;;;;;8.85;46.26;100390.25;5072408;28;20195;-62
2022/03/14 01:52:20;;;;;;;12.33;11.07;;;;;;;8.87;49.66;100391.84;5042762;28;20228;-62
2022/03/14 01:54:47;;;;;;;16.17;11.97;;;;;;;8.86;53.19;100400.44;5052120;28;20181;-61
2022/03/14 01:57:13;;;;;;;15.30;11.50;;;;;;;8.82;58.66;100398.06;5063201;28;20232;-63
2022/03/14 01:59:39;;;;;;;15.47;12.03;;;;;;;8.80;62.23;100395.56;5063279;28;20305;-63
2022/03/14 02:02:04;;;;;;;12.73;10.87;;;;;;;8.79;67.88;100405.91;5062995;28;20678;-62
2022/03/14 02:04:30;;;;;;;12.73;11.40;;;;;;;8.87;70.78;100404.69;5072257;28;20188;-62
2022/03/14 02:06:57;;;;;;;13.50;10.13;;;;;;;8.80;75.01;100412.69;5072040;28;20188;-61
2022/03/14 02:09:23;;;;;;;12.83;9.33;;;;;;;8.83;77.69;100417.69;5069713;28;20180;-61
2022/03/14 02:11:57;;;;;;;11.07;9.90;;;;;;;8.77;79.34;100426.50;5061057;28;20667;-62
2022/03/14 02:14:24;;;;;;;11.53;9.17;;;;;;;8.79;81.20;100434.94;5072233;28;20160;-62
2022/03/14 02:16:50;;;;;;;9.23;8.33;;;;;;;8.69;84.15;100449.88;5071938;28;20784;-60
2022/03/14 02:19:18;;;;;;;9.50;8.47;;;;;;;8.69;85.24;100447.31;5069670;28;20535;-62
2022/03/14 02:21:44;;;;;;;9.63;7.87;;;;;;;8.61;88.58;100454.50;5063678;28;20277;-61
2022/03/14 02:24:09;;;;;;;11.20;8.87;;;;;;;8.56;90.62;100451.28;5073989;28;20188;-62
2022/03/14 02:26:39;;;;;;;9.57;8.53;;;;;;;8.54;91.86;100458.19;5070493;28;20250;-63
2022/03/14 02:29:08;;;;;;;9.90;8.83;;;;;;;8.66;92.49;100462.00;5070462;28;20198;-63
2022/03/14 02:31:37;;;;;;;11.73;8.43;;;;;;;8.55;93.71;100460.69;5063349;28;20602;-60
2022/03/14 02:34:07;;;;;;;10.70;8.83;;;;;;;8.50;94.85;100466.94;5087245;28;20219;-63
2022/03/14 02:36:33;;;;;;;6.80;6.10;;;;;;;8.39;96.59;100470.69;5086910;28;20208;-62
2022/03/14 02:38:58;;;;;;;6.40;5.60;;;;;;;8.37;97.35;100472.50;5086425;28;20200;-62
2022/03/14 02:41:25;;;;;;;5.90;5.30;;;;;;;8.16;98.50;100473.31;5051818;28;20313;-61
2022/03/14 02:43:50;;;;;;;5.47;4.97;;;;;;;8.26;99.50;100484.06;5064702;28;20200;-62
2022/03/14 02:46:15;;;;;;;5.10;4.57;;;;;;;8.25;99.92;100488.38;5070260;28;20184;-62
2022/03/14 02:48:42;;;;;;;4.50;4.10;;;;;;;8.32;100.00;100483.81;5071037;28;20200;-62
2022/03/14 02:51:07;;;;;;;3.90;3.60;;;;;;;8.17;100.00;100496.31;5054213;28;20354;-62
2022/03/14 02:53:33;;;;;;;3.47;3.17;;;;;;;8.10;100.00;100494.91;5051122;28;20238;-61
2022/03/14 02:55:58;;;;;;;3.40;3.10;;;;;;;7.98;100.00;100500.50;5070161;28;20613;-61
2022/03/14 02:58:25;;;;;;;3.73;3.30;;;;;;;8.00;100.00;100511.50;5072230;28;20288;-61
2022/03/14 03:01:09;;;;;;;3.43;2.90;;;;;;;7.92;100.00;100514.34;5078335;28;20424;-61
2022/03/14 03:03:36;;;;;;;4.33;3.60;;;;;;;7.80;100.00;100525.03;5088839;28;20598;-62
2022/03/14 03:06:02;;;;;;;4.47;3.60;;;;;;;7.71;100.00;100532.16;5089034;28;20190;-61
2022/03/14 03:08:27;;;;;;;3.77;3.30;;;;;;;7.58;100.00;100525.81;5088624;28;20634;-61
2022/03/14 03:10:57;;;;;;;3.83;3.50;;;;;;;7.53;100.00;100530.25;5061964;28;20231;-61
2022/03/14 03:13:23;;;;;;;4.10;3.37;;;;;;;7.49;100.00;100536.38;5071812;28;20343;-62
2022/03/14 03:15:48;;;;;;;5.27;3.60;;;;;;;7.56;100.00;100542.97;5088706;28;20246;-61
2022/03/14 03:18:14;;;;;;;3.60;3.30;;;;;;;7.52;100.00;100539.66;5072771;28;20187;-60
2022/03/14 03:20:39;;;;;;;5.63;3.20;;;;;;;7.38;100.00;100541.84;5046858;28;20236;-60
2022/03/14 03:23:04;;;;;;;4.10;3.47;;;;;;;7.31;100.00;100541.25;5080591;28;20184;-61
2022/03/14 03:25:30;;;;;;;5.10;3.37;;;;;;;7.40;100.00;100552.88;5068716;28;20240;-61
2022/03/14 03:27:55;;;;;;;4.30;3.90;;;;;;;7.46;100.00;100551.84;5051504;28;20284;-60
2022/03/14 03:30:20;;;;;;;5.90;4.00;;;;;;;7.43;100.00;100561.28;5066504;28;20218;-61
2022/03/14 03:32:46;;;;;;;4.13;3.63;;;;;;;7.47;100.00;100558.63;5058391;28;20346;-62
2022/03/14 03:35:11;;;;;;;4.73;4.33;;;;;;;7.35;100.00;100563.25;5071211;28;20235;-61
2022/03/14 03:37:37;;;;;;;4.17;3.77;;;;;;;7.32;100.00;100575.31;5070542;28;20754;-61
2022/03/14 03:40:03;;;;;;;4.53;3.90;;;;;;;7.42;100.00;100576.72;5068678;28;20177;-63
2022/03/14 03:42:28;;;;;;;4.43;4.03;;;;;;;7.35;100.00;100578.63;5030656;28;20209;-62
2022/03/14 03:44:55;;;;;;;4.17;3.73;;;;;;;7.43;100.00;100584.34;5049423;28;20200;-61
2022/03/14 03:47:21;;;;;;;4.57;4.17;;;;;;;7.50;100.00;100594.38;5048758;28;20263;-63
2022/03/14 03:49:47;;;;;;;4.37;3.97;;;;;;;7.46;100.00;100603.88;5049755;28;20183;-62
2022/03/14 03:52:12;;;;;;;4.40;4.00;;;;;;;7.41;100.00;100604.00;5051229;28;20231;-63
2022/03/14 03:54:38;;;;;;;4.63;3.70;;;;;;;7.41;100.00;100601.44;5073701;28;20172;-61
2022/03/14 03:57:03;;;;;;;4.67;3.93;;;;;;;7.42;100.00;100595.44;5074859;28;20322;-62
2022/03/14 03:59:29;;;;;;;4.17;3.77;;;;;;;7.52;100.00;100601.09;5089415;28;20188;-62
2022/03/14 04:01:55;;;;;;;4.23;3.70;;;;;;;7.54;100.00;100599.34;5040095;28;20384;-61
2022/03/14 04:04:21;;;;;;;4.33;3.93;;;;;;;7.59;100.00;100607.69;5072217;28;20180;-60
2022/03/14 04:06:47;;;;;;;5.00;4.23;;;;;;;7.64;100.00;100610.09;5072905;28;20209;-61
2022/03/14 04:09:13;;;;;;;4.40;4.00;;;;;;;7.61;100.00;100614.50;5072545;28;20176;-60
2022/03/14 04:11:41;;;;;;;3.50;3.20;;;;;;;7.55;100.00;100623.19;5052056;28;20228;-61
2022/03/14 04:14:09;;;;;;;4.00;3.50;;;;;;;7.61;100.00;100625.56;5057754;28;20532;-62
2022/03/14 04:16:36;;;;;;;3.87;3.57;;;;;;;7.60;100.00;100634.13;5053748;28;20741;-62
2022/03/14 04:19:01;;;;;;;4.03;3.27;;;;;;;7.58;100.00;100641.84;5052453;28;20173;-63
2022/03/14 04:21:27;;;;;;;6.80;4.23;;;;;;;7.64;100.00;100645.94;5054825;28;20293;-62
2022/03/14 04:23:53;;;;;;;5.47;3.93;;;;;;;7.68;100.00;100644.94;5052870;28;20176;-61
2022/03/14 04:26:18;;;;;;;4.53;3.87;;;;;;;7.68;100.00;100649.25;5052678;28;20204;-63
2022/03/14 04:28:43;;;;;;;3.93;3.53;;;;;;;7.65;100.00;100654.47;5052234;28;20178;-61
2022/03/14 04:31:09;;;;;;;4.67;4.27;;;;;;;7.66;100.00;100662.06;5025635;28;20236;-60
2022/03/14 04:33:35;;;;;;;4.30;3.90;;;;;;;7.70;100.00;100667.94;5052385;28;20367;-61
2022/03/14 04:36:02;;;;;;;4.53;4.13;;;;;;;7.59;100.00;100665.72;5052629;28;20200;-60
2022/03/14 04:38:28;;;;;;;4.30;3.90;;;;;;;7.57;100.00;100675.19;5054691;28;20185;-60
2022/03/14 04:40:54;;;;;;;4.10;3.70;;;;;;;7.61;100.00;100669.09;5063094;28;20694;-61
2022/03/14 04:43:21;;;;;;;4.27;3.97;;;;;;;7.54;100.00;100672.72;5061294;28;20211;-60
2022/03/14 04:45:47;;;;;;;4.53;3.83;;;;;;;7.50;100.00;100671.16;5072204;28;20175;-61
2022/03/14 04:48:13;;;;;;;4.27;3.93;;;;;;;7.59;100.00;100668.28;5071944;28;20535;-61
2022/03/14 04:50:39;;;;;;;5.07;4.43;;;;;;;7.63;100.00;100672.44;5064870;28;20250;-61
2022/03/14 04:53:06;;;;;;;6.60;4.77;;;;;;;7.60;100.00;100675.09;5065135;28;20530;-61
2022/03/14 04:55:34;;;;;;;6.63;5.53;;;;;;;7.54;100.00;100678.69;5071859;28;20226;-60
2022/03/14 04:58:02;;;;;;;5.40;4.90;;;;;;;7.54;100.00;100671.03;5071271;28;20231;-61
2022/03/14 05:00:28;;;;;;;9.70;5.50;;;;;;;7.46;100.00;100670.41;5061289;28;20314;-62
2022/03/14 05:03:03;;;;;;;5.20;4.70;;;;;;;7.47;100.00;100679.78;5072350;28;20258;-61
2022/03/14 05:05:29;;;;;;;6.87;4.80;;;;;;;7.39;100.00;100680.03;5071831;28;20654;-61
2022/03/14 05:07:55;;;;;;;4.83;4.43;;;;;;;7.45;100.00;100686.66;5071478;28;20192;-63
2022/03/14 05:10:22;;;;;;;5.80;5.17;;;;;;;7.49;100.00;100689.97;5065725;28;20167;-64
2022/03/14 05:12:48;;;;;;;5.17;4.67;;;;;;;7.49;100.00;100700.19;5094040;28;20186;-62
2022/03/14 05:15:17;;;;;;;5.07;4.67;;;;;;;7.46;100.00;100700.31;5094078;28;20206;-61
2022/03/14 05:17:43;;;;;;;5.93;5.27;;;;;;;7.48;100.00;100707.06;5093575;28;20232;-61
2022/03/14 05:20:09;;;;;;;5.50;5.10;;;;;;;7.40;100.00;100709.00;5077691;28;20218;-61
2022/03/14 05:22:48;;;;;;;4.80;4.40;;;;;;;7.33;100.00;100713.50;5071605;28;20177;-62
2022/03/14 05:25:14;;;;;;;5.43;4.80;;;;;;;7.37;100.00;100714.25;5071429;28;20661;-62
2022/03/14 05:27:41;;;;;;;4.93;4.53;;;;;;;7.38;100.00;100715.88;5072025;28;20180;-61
2022/03/14 05:30:08;;;;;;;5.50;5.00;;;;;;;7.46;100.00;100716.50;5063600;28;20186;-62
2022/03/14 05:32:39;;;;;;;6.97;5.40;;;;;;;7.40;100.00;100714.97;5087394;28;20175;-62
2022/03/14 05:35:05;;;;;;;5.30;4.90;;;;;;;7.37;100.00;100727.88;5071240;28;20203;-63
2022/03/14 05:37:31;;;;;;;6.00;5.10;;;;;;;7.36;100.00;100738.97;5070384;28;20223;-62
2022/03/14 05:39:56;;;;;;;5.53;5.03;;;;;;;7.41;100.00;100737.13;5062217;28;20215;-62
2022/03/14 05:42:22;;;;;;;5.30;4.50;;;;;;;7.34;100.00;100745.03;5042438;28;20231;-62
2022/03/14 05:44:48;;;;;;;4.73;4.33;;;;;;;7.20;100.00;100748.84;5051109;28;20200;-61
2022/03/14 05:47:13;;;;;;;4.13;3.83;;;;;;;7.22;100.00;100751.38;5060336;28;20183;-61
2022/03/14 05:49:38;;;;;;;4.30;3.90;;;;;;;7.18;100.00;100755.75;5071116;28;20199;-61
2022/03/14 05:52:05;;;;;;;4.43;3.80;;;;;;;7.19;100.00;100754.84;5065493;28;20232;-62
2022/03/14 05:54:31;;;;;;;3.27;2.97;;;;;;;7.18;100.00;100763.44;5071853;28;20181;-62
2022/03/14 05:56:57;;;;;;;3.20;3.00;;;;;;;7.14;100.00;100766.94;5071942;28;20746;-62
2022/03/14 05:59:22;;;;;;;3.30;3.00;;;;;;;7.15;100.00;100770.34;5070086;28;20545;-65
2022/03/14 06:01:48;;;;;;;4.40;3.03;;;;;;;7.27;100.00;100767.44;5063952;28;20277;-63
2022/03/14 06:04:14;;;;;;;2.90;2.60;;;;;;;7.26;100.00;100769.13;5074052;28;20180;-63
2022/03/14 06:06:39;;;;;;;3.67;2.80;;;;;;;7.33;100.00;100774.06;5070639;28;20206;-62
2022/03/14 06:09:05;;;;;;;3.10;2.73;;;;;;;7.33;100.00;100780.03;5070028;28;20175;-64
2022/03/14 06:11:30;;;;;;;2.73;2.30;;;;;;;7.15;100.00;100776.28;5073248;28;20754;-61
2022/03/14 06:13:56;;;;;;;2.47;2.27;;;;;;;7.22;100.00;100779.53;5069994;28;20562;-63
2022/03/14 06:16:22;;;;;;;2.20;2.00;;;;;;;7.20;100.00;100792.34;5072070;28;20243;-62
2022/03/14 06:18:47;;;;;;;2.67;2.20;;;;;;;7.05;100.00;100785.97;5087006;28;20175;-63
2022/03/14 06:21:14;;;;;;;4.33;2.40;;;;;;;7.25;100.00;100779.44;5071068;28;20252;-62
2022/03/14 06:23:39;;;;;;;3.13;2.83;;;;;;;7.26;100.00;100779.38;5070044;28;20176;-62
2022/03/14 06:26:06;;;;;;;1.97;1.87;;;;;;;7.27;100.00;100793.03;5071767;28;20236;-64
2022/03/14 06:28:31;;;;;;;1.93;1.83;;;;;;;7.42;100.00;100800.22;5070004;28;20542;-62
2022/03/14 06:30:57;;;;;;;2.40;2.20;;;;;;;7.34;100.00;100793.66;5068419;28;20238;-62
2022/03/14 06:33:22;;;;;;;3.90;2.00;;;;;;;7.34;100.00;100814.13;5070113;28;20218;-63
2022/03/14 06:35:48;;;;;;;3.03;1.70;;;;;;;7.30;100.00;100818.50;5071052;28;20242;-64
2022/03/14 06:38:13;;;;;;;1.87;1.77;;;;;;;7.42;100.00;100819.88;5086451;28;20222;-62
2022/03/14 06:40:41;;;;;;;3.03;1.90;;;;;;;7.39;100.00;100825.06;5067341;28;20271;-63
2022/03/14 06:43:06;;;;;;;2.20;1.60;;;;;;;7.37;100.00;100824.31;5082416;28;20176;-63
2022/03/14 06:45:32;;;;;;;4.20;1.70;;;;;;;7.46;100.00;100831.69;5071582;28;20522;-62
2022/03/14 06:47:58;;;;;;;3.07;1.83;;;;;;;7.41;100.00;100833.56;5073934;28;20595;-61
2022/03/14 06:50:23;;;;;;;5.47;1.87;;;;;;;7.49;100.00;100841.00;5065574;28;20241;-62
2022/03/14 06:52:49;;;;;;;3.53;1.70;;;;;;;7.52;100.00;100840.94;5078125;28;20183;-62
2022/03/14 06:55:15;;;;;;;1.90;1.80;;;;;;;7.60;100.00;100849.19;5069969;28;20254;-63
2022/03/14 06:57:40;;;;;;;2.93;1.70;;;;;;;7.74;100.00;100849.63;5069242;28;20712;-62
2022/03/14 07:00:07;;;;;;;2.80;2.00;;;;;;;7.78;100.00;100858.06;5060241;28;20658;-63
2022/03/14 07:02:35;;;;;;;5.37;2.10;;;;;;;7.85;100.00;100856.13;5069851;28;20176;-62
2022/03/14 07:05:01;;;;;;;3.90;1.80;;;;;;;8.03;100.00;100860.69;5069872;28;20184;-61
2022/03/14 07:07:27;;;;;;;3.70;2.10;;;;;;;7.87;100.00;100865.44;5070354;28;20180;-63
2022/03/14 07:09:52;;;;;;;4.13;2.40;;;;;;;7.88;100.00;100863.72;5070099;28;20191;-62
2022/03/14 07:12:17;;;;;;;4.03;2.77;;;;;;;7.88;100.00;100879.94;5044398;28;20220;-63
2022/03/14 07:14:42;;;;;;;6.10;3.27;;;;;;;7.91;100.00;100877.28;5069934;28;20611;-62
2022/03/14 07:17:08;;;;;;;4.47;2.93;;;;;;;7.89;100.00;100889.28;5069840;28;20641;-64
2022/03/14 07:19:34;;;;;;;3.30;2.73;;;;;;;7.95;100.00;100888.28;5064023;28;20185;-63
2022/03/14 07:21:59;;;;;;;4.37;3.43;;;;;;;8.07;100.00;100898.16;5066653;28;20216;-63
2022/03/14 07:24:25;;;;;;;6.77;3.60;;;;;;;8.09;100.00;100895.53;5050134;28;20604;-63
2022/03/14 07:26:51;;;;;;;5.13;3.20;;;;;;;8.15;100.00;100908.16;5063233;28;20591;-62
2022/03/14 07:29:17;;;;;;;8.03;3.07;;;;;;;8.20;100.00;100916.53;5063695;28;20191;-64
2022/03/14 07:31:42;;;;;;;6.87;3.20;;;;;;;8.38;100.00;100921.94;5045939;28;20315;-63
2022/03/14 07:34:08;;;;;;;6.90;3.30;;;;;;;8.41;100.00;100927.00;5053711;28;20181;-63
2022/03/14 07:36:34;;;;;;;5.13;3.13;;;;;;;8.63;100.00;100924.56;5060829;28;20216;-63
2022/03/14 07:39:04;;;;;;;3.90;3.03;;;;;;;8.71;100.00;100937.16;5054862;28;20177;-63
2022/03/14 07:41:29;;;;;;;5.83;3.23;;;;;;;8.79;100.00;100939.47;5046318;28;20316;-62
2022/03/14 07:43:55;;;;;;;6.53;3.40;;;;;;;8.83;100.00;100943.59;5056539;28;20279;-61
2022/03/14 07:46:21;;;;;;;4.83;3.13;;;;;;;8.75;100.00;100949.00;5074103;28;20595;-62
2022/03/14 07:48:46;;;;;;;4.80;4.10;;;;;;;8.81;99.23;100946.22;5065175;28;20185;-63
2022/03/14 07:51:11;;;;;;;5.60;3.30;;;;;;;8.86;99.77;100946.91;5057260;28;20228;-63
2022/03/14 07:53:37;;;;;;;8.73;3.40;;;;;;;8.86;99.21;100959.72;5052670;28;20256;-61
2022/03/14 07:56:02;;;;;;;6.63;3.50;;;;;;;8.71;99.07;100961.06;5052765;28;20296;-63
2022/03/14 07:58:29;;;;;;;4.10;3.27;;;;;;;8.68;100.00;100963.75;5053919;28;20217;-62
2022/03/14 08:00:56;;;;;;;7.07;3.83;;;;;;;8.74;100.00;100956.75;5036197;28;20272;-63
2022/03/14 08:03:23;;;;;;;5.40;3.73;;;;;;;8.68;100.00;100960.34;5058981;28;20177;-62
2022/03/14 08:05:51;;;;;;;7.53;4.23;;;;;;;8.84;99.05;100971.78;5072731;28;20196;-63
2022/03/14 08:08:17;;;;;;;8.07;3.73;;;;;;;8.90;98.06;100977.59;5072444;28;20232;-64
2022/03/14 08:10:43;;;;;;;7.23;3.43;;;;;;;8.84;98.14;100984.63;5063181;28;20655;-62
2022/03/14 08:13:09;;;;;;;5.33;3.63;;;;;;;9.07;97.70;100989.84;5061328;28;20258;-61
2022/03/14 08:15:37;;;;;;;7.27;3.77;;;;;;;9.17;96.65;100996.34;5060795;28;20244;-62
2022/03/14 08:18:08;;;;;;;4.57;3.87;;;;;;;9.49;95.48;100994.41;5059858;28;20264;-62
2022/03/14 08:20:34;;;;;;;8.13;4.27;;;;;;;9.56;93.54;101000.97;5067906;28;20228;-63
2022/03/14 08:23:02;;;;;;;7.80;3.87;;;;;;;9.69;91.91;101004.78;5083766;28;20177;-65
2022/03/14 08:25:29;;;;;;;6.33;3.57;;;;;;;9.74;92.00;101008.94;5073828;28;20184;-63
2022/03/14 08:27:55;;;;;;;10.57;4.07;;;;;;;9.73;91.13;101008.06;5072177;28;20642;-62
2022/03/14 08:30:23;;;;;;;9.10;4.40;;;;;;;10.05;89.10;101005.19;5041591;28;20219;-65
2022/03/14 08:32:50;;;;;;;6.77;4.00;;;;;;;10.20;88.67;101009.75;5055449;28;20169;-63
2022/03/14 08:35:18;;;;;;;7.87;4.03;;;;;;;9.83;88.27;101018.84;5051893;28;20208;-64
2022/03/14 08:37:45;;;;;;;7.63;3.63;;;;;;;9.90;87.51;101017.75;5052533;28;20181;-64
2022/03/14 08:40:13;;;;;;;5.80;3.20;;;;;;;10.32;85.01;101017.00;5059912;28;20239;-63
2022/03/14 08:42:40;;;;;;;7.23;3.17;;;;;;;10.66;82.64;101018.25;5070446;28;20177;-62
2022/03/14 08:45:07;;;;;;;9.70;3.83;;;;;;;10.80;81.73;101019.44;5073822;28;20209;-63
2022/03/14 08:47:34;;;;;;;7.17;3.50;;;;;;;10.91;77.96;101029.31;5071700;28;20193;-64
2022/03/14 08:50:02;;;;;;;5.53;3.17;;;;;;;11.26;76.84;101032.13;5072183;28;20181;-65
2022/03/14 08:52:27;;;;;;;8.50;3.20;;;;;;;11.14;76.30;101039.50;5062019;28;20295;-62
2022/03/14 08:54:53;;;;;;;4.83;2.80;;;;;;;10.99;77.12;101040.13;5072043;28;20810;-63
2022/03/14 08:57:18;;;;;;;5.27;2.70;;;;;;;11.03;76.59;101040.84;5072627;28;20227;-63
2022/03/14 08:59:44;;;;;;;5.97;3.10;;;;;;;11.39;74.81;101042.78;5071848;28;20183;-63
2022/03/14 09:02:10;;;;;;;5.30;3.20;;;;;;;11.62;73.63;101044.34;5047862;28;20296;-63
2022/03/14 09:04:35;;;;;;;7.63;3.17;;;;;;;12.29;70.83;101049.13;5072771;28;20414;-64
2022/03/14 09:07:02;;;;;;;9.47;3.33;;;;;;;11.94;71.63;101054.97;5071885;28;20259;-63
2022/03/14 09:09:27;;;;;;;6.50;3.07;;;;;;;11.82;71.81;101053.78;5071048;28;20180;-61
2022/03/14 09:11:52;;;;;;;8.57;3.90;;;;;;;11.68;71.33;101051.78;5049394;28;20231;-63
2022/03/14 09:14:18;;;;;;;5.27;3.27;;;;;;;12.03;71.14;101062.31;5070368;28;20177;-63
2022/03/14 09:16:44;;;;;;;7.70;3.37;;;;;;;12.27;68.22;101055.19;5070227;28;20599;-65
2022/03/14 09:19:09;;;;;;;9.37;2.93;;;;;;;12.70;67.56;101052.34;5050947;28;20644;-61
2022/03/14 09:21:35;;;;;;;7.83;3.47;;;;;;;12.29;66.76;101064.59;5053921;28;20232;-63
2022/03/14 09:24:00;;;;;;;4.63;2.60;;;;;;;12.64;66.43;101059.53;5051331;28;20185;-63
2022/03/14 09:26:26;;;;;;;8.43;3.60;;;;;;;12.62;66.10;101063.94;5051461;28;20173;-65
2022/03/14 09:28:52;;;;;;;6.87;2.60;;;;;;;12.56;66.27;101073.63;5050875;28;20184;-62
2022/03/14 09:31:17;;;;;;;5.90;3.10;;;;;;;14.14;60.96;101072.66;5051739;28;20221;-62
2022/03/14 09:33:43;;;;;;;5.33;2.53;;;;;;;14.74;57.86;101074.56;5051314;28;20204;-65
2022/03/14 09:36:08;;;;;;;4.20;2.30;;;;;;;14.96;54.65;101068.19;5050875;28;20208;-62
2022/03/14 09:38:34;;;;;;;5.37;2.90;;;;;;;16.28;51.72;101074.13;5066300;28;20172;-63
2022/03/14 09:41:02;;;;;;;6.43;2.50;;;;;;;15.81;50.55;101076.13;5059433;28;20243;-63
2022/03/14 09:43:30;;;;;;;2.27;1.73;;;;;;;14.89;53.13;101083.22;5071211;28;20295;-64
2022/03/14 09:45:58;;;;;;;5.20;2.53;;;;;;;14.43;55.16;101080.59;5088023;28;20654;-63
2022/03/14 09:48:24;;;;;;;6.23;2.23;;;;;;;13.81;56.73;101095.06;5070561;28;20605;-66
2022/03/14 09:50:52;;;;;;;3.77;2.40;;;;;;;13.32;58.67;101100.97;5061731;28;20308;-63
2022/03/14 09:53:18;;;;;;;5.63;2.40;;;;;;;13.20;60.58;101099.84;5057435;28;20189;-63
2022/03/14 09:55:47;;;;;;;3.50;2.40;;;;;;;13.03;61.22;101103.25;5068148;28;20207;-63
2022/03/14 09:58:19;;;;;;;7.57;2.93;;;;;;;12.34;63.42;101109.09;5071648;28;20655;-62
2022/03/14 10:00:46;;;;;;;4.33;2.97;;;;;;;12.15;65.53;101104.75;5061196;28;20224;-61
2022/03/14 10:03:14;;;;;;;5.97;2.97;;;;;;;12.11;65.46;101111.81;5060204;28;20173;-63
2022/03/14 10:05:40;;;;;;;4.83;2.53;;;;;;;12.50;65.07;101119.53;5071880;28;20653;-64
2022/03/14 10:08:07;;;;;;;3.73;2.23;;;;;;;12.78;63.75;101116.50;5070066;28;20655;-62
2022/03/14 10:10:33;;;;;;;7.23;2.57;;;;;;;12.39;63.79;101128.63;5059198;28;20364;-63
2022/03/14 10:12:58;;;;;;;4.87;2.30;;;;;;;11.91;64.51;101115.25;5058174;28;20184;-62
2022/03/14 10:15:25;;;;;;;4.50;2.10;;;;;;;11.55;66.02;101125.41;5071401;28;20574;-61
2022/03/14 10:17:54;;;;;;;6.20;2.40;;;;;;;11.33;65.87;101120.31;5069864;28;20666;-65
2022/03/14 10:20:22;;;;;;;3.03;1.80;;;;;;;11.22;66.33;101113.03;5059818;28;20204;-63
2022/03/14 10:22:48;;;;;;;3.53;1.83;;;;;;;11.16;68.32;101116.66;5056275;28;20183;-62
2022/03/14 10:25:16;;;;;;;4.40;1.97;;;;;;;11.37;67.75;101117.53;5071576;28;20206;-63
2022/03/14 10:27:54;;;;;;;3.07;1.63;;;;;;;11.50;66.82;101115.28;5069949;28;20184;-63
2022/03/14 10:30:33;;;;;;;4.63;2.03;;;;;;;11.90;65.52;101117.88;5059729;28;20169;-62
2022/03/14 10:33:04;;;;;;;4.73;2.00;;;;;;;12.31;64.17;101122.97;5057660;28;20180;-62
2022/03/14 10:35:34;;;;;;;4.37;2.00;;;;;;;12.38;61.73;101126.94;5069767;28;20596;-61
2022/03/14 10:38:02;;;;;;;3.73;2.17;;;;;;;12.83;61.02;101119.69;5071758;28;20511;-62
2022/03/14 10:40:36;;;;;;;4.50;1.80;;;;;;;12.63;59.08;101128.41;5045636;28;20256;-62
2022/03/14 10:43:02;;;;;;;2.83;1.60;;;;;;;12.91;58.83;101117.59;5062740;28;20182;-63
2022/03/14 10:45:31;;;;;;;4.63;2.17;;;;;;;13.39;56.95;101117.84;5069856;28;20195;-63
2022/03/14 10:47:57;;;;;;;3.30;2.10;;;;;;;13.42;56.64;101123.78;5070910;28;20181;-63
2022/03/14 10:50:41;;;;;;;2.57;1.67;;;;;;;13.59;55.25;101128.94;5060604;28;20283;-62
2022/03/14 10:53:12;;;;;;;5.97;1.77;;;;;;;13.06;56.99;101128.94;5055575;28;20185;-61
2022/03/14 10:55:46;;;;;;;5.10;2.27;;;;;;;12.69;57.55;101145.31;5051833;28;20201;-62
2022/03/14 10:58:17;;;;;;;4.63;2.53;;;;;;;12.18;60.94;101145.06;5069261;28;20224;-66
2022/03/14 11:00:53;;;;;;;4.70;2.80;;;;;;;12.31;61.14;101153.09;5059699;28;20311;-62
2022/03/14 11:03:25;;;;;;;6.17;2.50;;;;;;;12.37;61.96;101156.22;5067142;28;20185;-62
2022/03/14 11:05:52;;;;;;;2.73;2.23;;;;;;;12.08;62.14;101158.38;5076682;28;20196;-62
2022/03/14 11:08:31;;;;;;;3.50;2.40;;;;;;;11.98;62.44;101157.09;5076021;28;20188;-63
2022/03/14 11:11:01;;;;;;;4.50;2.87;;;;;;;11.76;63.74;101155.41;5062019;28;20599;-63
2022/03/14 11:13:27;;;;;;;4.27;2.73;;;;;;;11.77;63.49;101158.81;5067567;28;20187;-63
2022/03/14 11:15:53;;;;;;;3.60;2.70;;;;;;;11.88;63.44;101161.78;5076447;28;20204;-62
2022/03/14 11:18:19;;;;;;;6.83;3.20;;;;;;;12.01;63.48;101169.03;5076064;28;20260;-62
2022/03/14 11:20:46;;;;;;;5.67;3.47;;;;;;;11.95;62.84;101168.34;5067003;28;20224;-63